This is the latest recevied weather packets stored in our database for station/object KC5EZZ-2. If no packets are shown the sender has not sent any weather packets the latest 10 day(s).
| Time | Temp. | Humidity | Pressure | Rain* | Wind** | Luminosity | Snow |
|---|---|---|---|---|---|---|---|
| 1777935432 | 31.67° C | - | - | 0 mm | 6.26 m/s, 173° | - | - |
| 1777935132 | 32.22° C | - | - | 0 mm | 6.71 m/s, 174° | - | - |
| 1777934833 | 32.22° C | - | - | 0 mm | 6.26 m/s, 193° | - | - |
| 1777934530 | 31.67° C | - | - | 0 mm | 6.71 m/s, 221° | - | - |
| 1777934230 | 32.78° C | - | - | 0 mm | 4.02 m/s, 180° | - | - |
| 1777933931 | 32.22° C | - | - | 0 mm | 7.15 m/s, 191° | - | - |
| 1777933628 | 32.22° C | - | - | 0 mm | 5.81 m/s, 203° | - | - |
| 1777933329 | 32.22° C | - | - | 0 mm | 5.81 m/s, 187° | - | - |
| 1777933029 | 31.67° C | - | - | 0 mm | 5.36 m/s, 180° | - | - |
| 1777932726 | 32.78° C | - | - | 0 mm | 5.81 m/s, 160° | - | - |
| 1777932427 | 32.22° C | - | - | 0 mm | 6.71 m/s, 187° | - | - |
| 1777932127 | 32.22° C | - | - | 0 mm | 6.26 m/s, 179° | - | - |
| 1777931825 | 32.78° C | - | - | 0 mm | 4.92 m/s, 214° | - | - |
| 1777931525 | 32.22° C | - | - | 0 mm | 6.26 m/s, 188° | - | - |
| 1777931226 | 32.22° C | - | - | 0 mm | 5.81 m/s, 207° | - | - |
| 1777930923 | 32.22° C | - | - | 0 mm | 5.81 m/s, 155° | - | - |
| 1777930623 | 32.78° C | - | - | 0 mm | 4.92 m/s, 149° | - | - |
| 1777930324 | 32.78° C | - | - | 0 mm | 4.47 m/s, 193° | - | - |
| 1777930021 | 32.78° C | - | - | 0 mm | 5.81 m/s, 170° | - | - |
| 1777929721 | 32.78° C | - | - | 0 mm | 5.36 m/s, 184° | - | - |
| 1777929422 | 32.22° C | - | - | 0 mm | 6.26 m/s, 204° | - | - |
| 1777929119 | 32.78° C | - | - | 0 mm | 6.71 m/s, 169° | - | - |
| 1777928820 | 32.78° C | - | - | 0 mm | 5.36 m/s, 191° | - | - |
| 1777928520 | 32.78° C | - | - | 0 mm | 5.81 m/s, 176° | - | - |
| 1777928217 | 32.22° C | - | - | 0 mm | 5.81 m/s, 160° | - | - |
* Rain latest hour (hover to see other rain measurements)
** Current wind speed in m/s (hover to see current wind gust speed)